Time;durP1;ratioP1;P1;durP2;ratioP2;P2;SDS_P1;SDS_P2;PMS_P1;PMS_P2;Temp;Humidity;BMP_temperature;BMP_pressure;BME280_temperature;BME280_humidity;BME280_pressure;Samples;Min_cycle;Max_cycle;Signal;HPM_P1;HPM_P2
2022/05/04 00:00:07;;;;;;;0.60;0.30;;;;;;;23.16;56.19;102006.25;5073623;28;20036;-64
2022/05/04 00:02:32;;;;;;;1.23;0.30;;;;;;;23.14;55.68;102008.34;5074939;28;20029;-64
2022/05/04 00:04:58;;;;;;;0.30;0.10;;;;;;;23.17;55.86;102010.72;5073767;28;20128;-64
2022/05/04 00:07:23;;;;;;;1.15;0.20;;;;;;;23.14;56.32;102008.34;5074659;28;20455;-64
2022/05/04 00:09:48;;;;;;;0.63;0.10;;;;;;;23.14;56.53;102011.06;5074924;28;20031;-64
2022/05/04 00:12:13;;;;;;;0.90;0.32;;;;;;;23.11;56.46;102013.13;5074705;28;20135;-64
2022/05/04 00:14:39;;;;;;;0.55;0.20;;;;;;;23.14;56.82;102008.34;5074714;28;20028;-65
2022/05/04 00:17:04;;;;;;;0.98;0.30;;;;;;;23.11;56.31;102021.38;5074803;28;20017;-64
2022/05/04 00:19:29;;;;;;;0.38;0.10;;;;;;;23.10;55.92;102027.88;5074546;28;20020;-64
2022/05/04 00:21:55;;;;;;;0.82;0.20;;;;;;;23.11;56.41;102029.59;5074689;28;20025;-64
2022/05/04 00:24:20;;;;;;;0.32;0.10;;;;;;;23.13;57.65;102028.56;5074700;28;20020;-64
2022/05/04 00:26:46;;;;;;;0.60;0.28;;;;;;;23.11;55.33;102034.22;5075013;28;20025;-65
2022/05/04 00:29:12;;;;;;;0.28;0.10;;;;;;;23.09;55.82;102039.91;5074453;28;20021;-64
2022/05/04 00:31:37;;;;;;;0.50;0.17;;;;;;;23.09;56.47;102039.03;5074493;28;20379;-64
2022/05/04 00:34:03;;;;;;;0.28;0.10;;;;;;;23.09;55.90;102045.38;5084364;28;20037;-62
2022/05/04 00:36:28;;;;;;;1.17;0.20;;;;;;;23.09;56.97;102039.91;5087310;28;20025;-64
2022/05/04 00:38:53;;;;;;;0.70;0.20;;;;;;;23.09;56.78;102039.03;5076150;28;20017;-64
2022/05/04 00:41:18;;;;;;;0.20;0.10;;;;;;;23.08;56.31;102035.44;5074134;28;20032;-64
2022/05/04 00:43:51;;;;;;;0.22;0.20;;;;;;;23.09;56.63;102045.38;5074168;28;20479;-65
2022/05/04 00:46:17;;;;;;;0.50;0.20;;;;;;;23.08;56.45;102037.31;5074007;28;20024;-64
2022/05/04 00:48:42;;;;;;;0.50;0.17;;;;;;;23.07;56.53;102036.47;5072976;28;20082;-64
2022/05/04 00:51:07;;;;;;;0.28;0.10;;;;;;;23.09;56.78;102045.38;5074145;28;20107;-64
2022/05/04 00:53:33;;;;;;;0.73;0.20;;;;;;;23.07;56.44;102047.44;5074589;28;20028;-64
2022/05/04 00:56:00;;;;;;;0.22;0.10;;;;;;;23.07;56.97;102047.44;5073961;28;20025;-64
2022/05/04 01:01:09;;;;;;;;;;;;;;;23.08;56.92;102046.41;5073899;28;20460;-65
2022/05/04 01:03:37;;;;;;;0.20;0.10;;;;;;;23.06;56.88;102053.97;5073671;28;20356;-65
2022/05/04 01:06:02;;;;;;;0.52;0.20;;;;;;;23.06;56.79;102055.84;5073824;28;20507;-64
2022/05/04 01:08:28;;;;;;;0.22;0.15;;;;;;;23.06;57.12;102058.59;5073817;28;20028;-64
2022/05/04 01:10:53;;;;;;;0.95;0.30;;;;;;;23.06;56.48;102056.69;5073652;28;20478;-64
2022/05/04 01:13:20;;;;;;;0.50;0.15;;;;;;;23.05;56.56;102060.47;5073512;28;20020;-64
2022/05/04 01:15:47;;;;;;;0.75;0.20;;;;;;;23.06;56.77;102056.69;5090393;28;20037;-63
2022/05/04 01:18:12;;;;;;;0.40;0.40;;;;;;;23.04;56.09;102058.78;5085639;28;20025;-64
2022/05/04 01:20:37;;;;;;;0.80;0.30;;;;;;;23.05;56.85;102065.97;5073385;28;20039;-64
2022/05/04 01:23:03;;;;;;;0.70;0.30;;;;;;;23.02;55.96;102073.69;5073871;28;20024;-64
2022/05/04 01:25:28;;;;;;;0.20;0.10;;;;;;;23.03;56.57;102075.41;5071844;28;20379;-64
2022/05/04 01:27:55;;;;;;;0.88;0.30;;;;;;;23.04;56.47;102068.88;5073327;28;20036;-64
2022/05/04 01:30:21;;;;;;;1.88;0.47;;;;;;;23.03;57.03;102070.78;5073058;28;20028;-64
2022/05/04 01:32:47;;;;;;;0.30;0.20;;;;;;;23.04;56.78;102069.75;5073204;28;20020;-64
2022/05/04 01:35:12;;;;;;;0.20;0.20;;;;;;;23.03;57.09;102073.50;5073550;28;20143;-64
2022/05/04 01:37:37;;;;;;;0.68;0.28;;;;;;;23.04;57.34;102075.22;5073043;28;20384;-64
2022/05/04 01:40:04;;;;;;;0.68;0.20;;;;;;;23.03;57.03;102083.63;5072396;28;20031;-64
2022/05/04 01:42:29;;;;;;;0.17;0.13;;;;;;;23.03;56.66;102083.63;5072853;28;20494;-64
2022/05/04 01:44:54;;;;;;;1.65;0.30;;;;;;;23.03;56.55;102084.47;5071810;28;20024;-64
2022/05/04 01:47:20;;;;;;;0.55;0.20;;;;;;;23.02;57.21;102085.50;5071525;28;20020;-64
2022/05/04 01:49:45;;;;;;;0.35;0.20;;;;;;;23.03;57.18;102095.44;5073021;28;20017;-64
2022/05/04 01:52:10;;;;;;;0.90;0.13;;;;;;;23.02;57.61;102093.75;5071664;28;20490;-64
2022/05/04 01:54:36;;;;;;;0.55;0.20;;;;;;;23.03;57.29;102087.22;5079589;28;20103;-64
2022/05/04 01:57:01;;;;;;;0.30;0.10;;;;;;;23.01;57.53;102085.66;5073992;28;20406;-64
2022/05/04 01:59:26;;;;;;;0.47;0.13;;;;;;;23.01;57.44;102085.66;5072450;28;20044;-64
2022/05/04 02:01:52;;;;;;;0.88;0.30;;;;;;;23.01;57.03;102085.66;5072832;28;20059;-64
2022/05/04 02:04:18;;;;;;;0.32;0.28;;;;;;;23.01;57.37;102086.53;5072915;28;20058;-64
2022/05/04 02:06:43;;;;;;;0.73;0.20;;;;;;;23.00;56.85;102095.78;5072698;28;20356;-64
2022/05/04 02:09:09;;;;;;;1.08;0.20;;;;;;;23.01;57.12;102100.25;5072696;28;20020;-64
2022/05/04 02:11:35;;;;;;;0.40;0.13;;;;;;;23.02;56.95;102098.38;5071912;28;20429;-64
2022/05/04 02:14:01;;;;;;;0.68;0.20;;;;;;;23.00;57.25;102101.25;5073078;28;20039;-64
2022/05/04 02:16:27;;;;;;;0.63;0.13;;;;;;;22.98;57.03;102102.47;5072473;28;20107;-64
2022/05/04 02:18:52;;;;;;;0.40;0.20;;;;;;;23.01;56.93;102107.59;5072636;28;20112;-64
2022/05/04 02:21:18;;;;;;;0.22;0.20;;;;;;;23.01;57.10;102110.34;5072749;28;20066;-64
2022/05/04 02:23:43;;;;;;;0.52;0.30;;;;;;;22.98;56.87;102107.94;5072804;28;20021;-64
2022/05/04 02:26:09;;;;;;;0.43;0.20;;;;;;;22.98;57.18;102108.81;5072575;28;20029;-64
2022/05/04 02:28:34;;;;;;;0.22;0.20;;;;;;;22.99;57.19;102113.25;5072356;28;20476;-64
2022/05/04 02:31:00;;;;;;;0.25;0.20;;;;;;;22.98;56.57;102111.53;5076651;28;20047;-62
2022/05/04 02:33:25;;;;;;;1.20;0.30;;;;;;;23.00;57.78;102117.72;5087267;28;20078;-63
2022/05/04 02:38:35;;;;;;;0.32;0.10;;;;;;;22.95;56.69;102117.38;5072726;28;20485;-64
2022/05/04 02:41:00;;;;;;;0.40;0.30;;;;;;;23.00;57.23;102119.59;5072380;28;20111;-64
2022/05/04 02:43:26;;;;;;;0.68;0.22;;;;;;;22.97;57.08;102117.22;5072183;28;20024;-64
2022/05/04 02:45:51;;;;;;;0.45;0.20;;;;;;;22.95;56.64;102125.59;5072377;28;20020;-64
2022/05/04 02:48:17;;;;;;;0.50;0.30;;;;;;;22.95;57.43;102125.59;5072123;28;20058;-64
2022/05/04 02:50:42;;;;;;;0.47;0.10;;;;;;;22.98;57.87;102130.75;5072847;28;20061;-64
2022/05/04 02:53:07;;;;;;;0.52;0.30;;;;;;;22.97;58.01;102134.53;5072384;28;20024;-64
2022/05/04 02:55:33;;;;;;;0.52;0.22;;;;;;;22.97;57.58;102130.91;5072054;28;20021;-64
2022/05/04 02:58:00;;;;;;;0.10;0.10;;;;;;;22.98;57.63;102130.75;5072325;28;20021;-64
2022/05/04 03:00:26;;;;;;;0.73;0.40;;;;;;;22.97;56.92;102118.06;5071862;28;20044;-64
2022/05/04 03:02:51;;;;;;;1.55;0.30;;;;;;;22.95;57.81;102069.91;5072207;28;20521;-64
2022/05/04 03:05:17;;;;;;;0.90;0.25;;;;;;;22.97;57.37;102071.44;5072072;28;20056;-64
2022/05/04 03:07:43;;;;;;;0.73;0.20;;;;;;;22.96;57.44;102099.91;5072008;28;20033;-64
2022/05/04 03:10:09;;;;;;;0.10;0.10;;;;;;;22.97;57.83;102148.22;5072439;28;20047;-64
2022/05/04 03:12:35;;;;;;;1.48;0.60;;;;;;;22.95;56.92;102125.59;5071972;28;20089;-64
2022/05/04 03:15:00;;;;;;;0.20;0.10;;;;;;;22.97;57.76;102122.69;5086685;28;20077;-65
2022/05/04 03:17:26;;;;;;;0.10;0.10;;;;;;;22.95;58.27;102114.63;5091473;28;20037;-64
2022/05/04 03:19:52;;;;;;;0.85;0.22;;;;;;;22.97;57.28;102128.19;5072150;28;20096;-64
2022/05/04 03:22:18;;;;;;;0.32;0.17;;;;;;;22.96;57.33;102127.31;5071824;28;20066;-64
2022/05/04 03:24:43;;;;;;;0.25;0.25;;;;;;;22.97;57.25;102128.19;5074711;28;20383;-64
2022/05/04 03:27:08;;;;;;;0.38;0.28;;;;;;;22.94;57.25;102123.03;5075683;28;20033;-64
2022/05/04 03:29:35;;;;;;;0.40;0.30;;;;;;;22.96;57.77;102127.31;5075764;28;20027;-64
2022/05/04 03:32:00;;;;;;;0.95;0.20;;;;;;;22.96;57.30;102101.78;5075648;28;20040;-64
2022/05/04 03:34:25;;;;;;;0.40;0.32;;;;;;;22.95;57.80;102117.38;5075336;28;20372;-64
2022/05/04 03:36:51;;;;;;;0.10;0.10;;;;;;;22.95;58.17;102125.59;5075619;28;20020;-64
2022/05/04 03:39:17;;;;;;;0.15;0.15;;;;;;;22.93;58.23;102127.66;5075294;28;20032;-64
2022/05/04 03:41:44;;;;;;;0.20;0.13;;;;;;;22.93;57.79;102133.16;5075767;28;20039;-64
2022/05/04 03:44:10;;;;;;;0.20;0.17;;;;;;;22.92;57.29;102131.44;5075433;28;20468;-64
2022/05/04 03:46:49;;;;;;;0.28;0.20;;;;;;;22.95;58.09;102131.09;5075218;28;20021;-64
2022/05/04 03:49:16;;;;;;;0.43;0.20;;;;;;;22.95;57.76;102130.25;5075251;28;20029;-64
2022/05/04 03:51:42;;;;;;;1.75;0.20;;;;;;;22.94;58.33;102123.91;5081318;28;20020;-61
2022/05/04 03:54:08;;;;;;;0.47;0.20;;;;;;;22.94;58.32;102131.28;5082323;28;20020;-64
2022/05/04 03:56:35;;;;;;;0.75;0.20;;;;;;;22.95;57.50;102135.72;5075029;28;20031;-64
2022/05/04 03:59:01;;;;;;;0.40;0.10;;;;;;;22.93;57.53;102138.63;5075009;28;20030;-64
2022/05/04 04:01:27;;;;;;;0.30;0.10;;;;;;;22.95;58.33;102142.06;5075082;28;20024;-64
2022/05/04 04:03:52;;;;;;;0.10;0.10;;;;;;;23.06;56.70;102147.22;5075098;28;20028;-64
2022/05/04 04:06:17;;;;;;;0.28;0.10;;;;;;;23.14;56.87;102145.50;5074842;28;20031;-64
2022/05/04 04:08:42;;;;;;;0.70;0.20;;;;;;;23.20;55.85;102142.09;5074803;28;20028;-64
2022/05/04 04:11:08;;;;;;;0.10;0.10;;;;;;;23.23;55.29;102145.31;5074900;28;20032;-64
2022/05/04 04:13:33;;;;;;;0.32;0.13;;;;;;;23.26;55.49;102138.63;5074732;28;20025;-64
2022/05/04 04:15:59;;;;;;;0.43;0.10;;;;;;;23.28;55.03;102136.56;5074779;28;20459;-64
2022/05/04 04:18:25;;;;;;;0.57;0.10;;;;;;;23.29;54.16;102149.25;5075371;28;20030;-64
2022/05/04 04:23:36;;;;;;;0.30;0.10;;;;;;;23.34;54.46;102152.34;5074609;28;20031;-64
2022/05/04 04:26:03;;;;;;;0.40;0.28;;;;;;;23.35;54.76;102159.56;5086690;28;20050;-65
2022/05/04 04:28:29;;;;;;;0.55;0.17;;;;;;;23.32;53.82;102165.38;5093159;28;20029;-64
2022/05/04 04:30:54;;;;;;;0.10;0.10;;;;;;;23.34;52.64;102168.78;5074544;28;20443;-64
2022/05/04 04:33:22;;;;;;;0.30;0.10;;;;;;;23.36;54.11;102155.78;5074349;28;20070;-64
2022/05/04 04:35:49;;;;;;;1.20;0.30;;;;;;;23.35;54.53;102154.94;5074143;28;20055;-64
2022/05/04 04:38:15;;;;;;;1.30;0.15;;;;;;;23.35;53.70;102159.56;5074187;28;20024;-64
2022/05/04 04:40:40;;;;;;;0.68;0.20;;;;;;;23.38;54.85;102156.47;5074244;28;20111;-64
2022/05/04 04:43:05;;;;;;;0.35;0.25;;;;;;;23.38;54.56;102156.47;5074323;28;20265;-64
2022/05/04 04:45:30;;;;;;;0.73;0.20;;;;;;;23.37;53.61;102152.88;5074073;28;20027;-64
2022/05/04 04:47:56;;;;;;;0.15;0.00;;;;;;;23.34;52.51;102160.56;5072735;28;20048;-64
2022/05/04 04:50:22;;;;;;;0.10;0.00;;;;;;;23.43;54.55;102162.28;5074206;28;20463;-64
2022/05/04 04:52:48;;;;;;;0.85;0.10;;;;;;;23.38;54.01;102162.81;5074135;28;20036;-64
2022/05/04 04:55:13;;;;;;;0.55;0.15;;;;;;;23.40;54.01;102168.13;5072803;28;20029;-64
2022/05/04 04:57:38;;;;;;;0.30;0.10;;;;;;;23.41;54.00;102164.34;5073900;28;20023;-64
2022/05/04 05:00:05;;;;;;;0.55;0.20;;;;;;;23.40;52.34;102168.13;5073865;28;20555;-64
2022/05/04 05:02:31;;;;;;;0.17;0.10;;;;;;;23.40;53.22;102176.34;5097960;28;20013;-65
2022/05/04 05:04:56;;;;;;;0.20;0.10;;;;;;;23.39;53.80;102177.38;5093653;28;20033;-64
2022/05/04 05:07:21;;;;;;;0.03;0.03;;;;;;;23.42;53.97;102183.38;5077717;28;20024;-64
2022/05/04 05:09:46;;;;;;;0.32;0.03;;;;;;;23.44;53.79;102174.97;5073759;28;20024;-64
2022/05/04 05:12:12;;;;;;;0.60;0.10;;;;;;;23.45;53.02;102176.69;5073653;28;20115;-64
2022/05/04 05:17:21;;;;;;;0.30;0.20;;;;;;;23.51;56.27;102173.22;5073755;28;20169;-65
2022/05/04 05:19:46;;;;;;;0.75;0.40;;;;;;;23.57;57.55;102175.34;5072355;28;20111;-65
2022/05/04 05:22:12;;;;;;;0.40;0.10;;;;;;;23.59;58.35;102187.00;5073582;28;20029;-65
2022/05/04 05:24:37;;;;;;;0.80;0.60;;;;;;;23.62;59.72;102183.03;5073388;28;20103;-65
2022/05/04 05:27:03;;;;;;;0.80;0.30;;;;;;;23.64;61.18;102187.31;5073342;28;20455;-65
2022/05/04 05:29:28;;;;;;;0.55;0.40;;;;;;;23.67;61.73;102189.72;5073212;28;20024;-65
2022/05/04 05:31:53;;;;;;;0.57;0.30;;;;;;;23.71;62.10;102184.75;5073366;28;20026;-65
2022/05/04 05:34:18;;;;;;;1.33;0.40;;;;;;;23.72;62.45;102186.47;5073346;28;20031;-65
2022/05/04 05:36:44;;;;;;;0.10;0.10;;;;;;;23.75;62.67;102188.00;5085483;28;20115;-62
2022/05/04 05:39:10;;;;;;;1.00;0.20;;;;;;;23.78;63.59;102182.16;5083200;28;20414;-65
2022/05/04 05:41:35;;;;;;;1.02;0.45;;;;;;;23.79;63.98;102186.59;5072371;28;20028;-65
2022/05/04 05:44:00;;;;;;;0.60;0.28;;;;;;;23.81;64.22;102181.78;5073153;28;20028;-65
2022/05/04 05:46:26;;;;;;;1.08;0.20;;;;;;;23.83;64.60;102185.22;5072854;28;20021;-65
2022/05/04 05:48:51;;;;;;;0.73;0.30;;;;;;;23.85;64.85;102192.28;5073045;28;20027;-65
2022/05/04 05:51:16;;;;;;;0.13;0.10;;;;;;;23.84;65.28;102187.78;5072830;28;20029;-65
2022/05/04 05:53:42;;;;;;;0.20;0.20;;;;;;;23.85;65.04;102188.66;5069866;28;20459;-65
2022/05/04 05:56:07;;;;;;;1.27;0.38;;;;;;;23.88;65.33;102188.31;5070969;28;20028;-65
2022/05/04 05:58:32;;;;;;;0.75;0.40;;;;;;;23.88;65.34;102193.81;5074267;28;20079;-64
2022/05/04 06:00:58;;;;;;;1.05;0.32;;;;;;;23.90;65.87;102191.75;5071582;28;20044;-65
2022/05/04 06:03:23;;;;;;;0.32;0.30;;;;;;;23.91;65.68;102190.72;5072691;28;20027;-65
2022/05/04 06:05:49;;;;;;;0.20;0.20;;;;;;;23.91;66.02;102193.47;5070553;28;20028;-66
2022/05/04 06:08:14;;;;;;;0.52;0.30;;;;;;;23.92;65.51;102187.78;5071364;28;20140;-65
2022/05/04 06:10:40;;;;;;;0.50;0.47;;;;;;;23.94;66.57;102187.59;5069702;28;20096;-66
2022/05/04 06:13:06;;;;;;;0.45;0.25;;;;;;;23.93;65.99;102188.63;5084442;28;20017;-66
2022/05/04 06:15:31;;;;;;;1.45;0.80;;;;;;;23.92;65.34;102185.03;5059990;28;20044;-65
2022/05/04 06:17:56;;;;;;;1.45;0.20;;;;;;;23.96;66.05;102189.13;5063560;28;20365;-66
2022/05/04 06:20:23;;;;;;;0.60;0.30;;;;;;;23.96;66.38;102186.38;5067941;28;20024;-65
2022/05/04 06:22:49;;;;;;;0.55;0.10;;;;;;;23.97;66.75;102187.25;5072336;28;20024;-64
2022/05/04 06:25:14;;;;;;;0.57;0.20;;;;;;;23.98;66.12;102189.81;5066490;28;20035;-65
2022/05/04 06:27:39;;;;;;;1.08;0.20;;;;;;;23.98;66.98;102183.47;5072460;28;20032;-65
2022/05/04 06:35:33;;;;;;;0.55;0.35;;;;;;;24.01;67.08;102183.97;5073786;28;20403;-66
2022/05/04 06:37:58;;;;;;;1.13;0.40;;;;;;;24.00;67.18;102176.75;5071032;28;20032;-65
2022/05/04 06:40:24;;;;;;;0.50;0.10;;;;;;;24.00;66.46;102171.25;5066691;28;20025;-65
2022/05/04 06:42:49;;;;;;;0.17;0.10;;;;;;;24.03;67.47;102174.72;5061125;28;20056;-66
2022/05/04 06:45:14;;;;;;;0.38;0.20;;;;;;;24.04;67.00;102173.69;5062242;28;20085;-66
2022/05/04 06:47:40;;;;;;;0.75;0.20;;;;;;;24.05;67.10;102184.50;5064321;28;20039;-66
2022/05/04 06:50:05;;;;;;;0.60;0.20;;;;;;;24.05;67.38;102200.97;5059882;28;20039;-66
2022/05/04 06:52:34;;;;;;;1.00;0.30;;;;;;;24.06;67.30;102194.44;5074942;28;20024;-68
2022/05/04 06:54:59;;;;;;;0.77;0.30;;;;;;;24.07;67.60;102193.41;5096360;28;20040;-66
2022/05/04 06:57:24;;;;;;;0.73;0.30;;;;;;;24.06;67.11;102186.19;5072733;28;20372;-66
2022/05/04 06:59:50;;;;;;;1.05;0.30;;;;;;;24.07;67.14;102189.81;5073915;28;20429;-66
2022/05/04 07:02:15;;;;;;;0.30;0.10;;;;;;;24.07;67.07;102185.16;5065527;28;20383;-66
2022/05/04 07:04:42;;;;;;;1.35;0.30;;;;;;;24.08;67.47;102199.75;5072852;28;20039;-66
2022/05/04 07:07:07;;;;;;;2.08;0.40;;;;;;;24.08;67.39;102199.75;5072757;28;20103;-65
2022/05/04 07:09:33;;;;;;;2.05;0.47;;;;;;;24.09;67.91;102196.84;5070404;28;20062;-65
2022/05/04 07:11:59;;;;;;;0.32;0.20;;;;;;;24.09;67.06;102191.34;5064585;28;20039;-65
2022/05/04 07:14:24;;;;;;;0.60;0.20;;;;;;;24.10;67.41;102198.53;5072914;28;20375;-65
2022/05/04 07:16:50;;;;;;;0.38;0.28;;;;;;;24.11;66.92;102197.50;5062354;28;20020;-65
2022/05/04 07:19:16;;;;;;;0.55;0.30;;;;;;;24.09;67.78;102202.31;5066825;28;20056;-65
2022/05/04 07:21:42;;;;;;;0.40;0.40;;;;;;;24.13;67.88;102208.31;5058778;28;20097;-65
2022/05/04 07:24:08;;;;;;;0.45;0.40;;;;;;;24.12;67.83;102204.72;5068957;28;20037;-65
2022/05/04 07:26:33;;;;;;;0.88;0.40;;;;;;;24.13;67.59;102202.81;5075632;28;20021;-65
2022/05/04 07:28:59;;;;;;;0.68;0.20;;;;;;;24.14;67.35;102199.88;5073584;28;20392;-64
2022/05/04 07:31:24;;;;;;;0.50;0.20;;;;;;;24.13;67.97;102195.44;5066666;28;20029;-66
2022/05/04 07:33:50;;;;;;;0.57;0.40;;;;;;;24.17;68.00;102209.66;5057035;28;20119;-64
2022/05/04 07:36:15;;;;;;;0.38;0.30;;;;;;;24.15;67.36;102203.50;5083900;28;20016;-62
2022/05/04 07:38:40;;;;;;;0.52;0.50;;;;;;;24.16;67.30;102196.97;5076959;28;20437;-65
2022/05/04 07:43:49;;;;;;;0.32;0.20;;;;;;;24.17;68.21;102205.03;5065681;28;20040;-65
2022/05/04 07:46:15;;;;;;;0.17;0.10;;;;;;;24.19;67.71;102210.38;5055442;28;20037;-65
2022/05/04 07:48:40;;;;;;;0.77;0.30;;;;;;;24.20;68.24;102214.84;5068701;28;20017;-66
2022/05/04 07:51:05;;;;;;;0.35;0.20;;;;;;;24.19;68.54;102211.22;5071740;28;20029;-65
2022/05/04 07:53:30;;;;;;;0.30;0.30;;;;;;;24.19;68.63;102213.97;5074214;28;20120;-66
2022/05/04 07:55:56;;;;;;;0.88;0.50;;;;;;;24.18;68.00;102217.72;5069763;28;20032;-66
2022/05/04 07:58:21;;;;;;;0.65;0.20;;;;;;;24.20;68.21;102215.69;5070703;28;20379;-66
2022/05/04 08:06:14;;;;;;;1.23;0.20;;;;;;;24.19;68.82;102219.47;5073816;28;20082;-69
2022/05/04 08:08:39;;;;;;;0.17;0.17;;;;;;;24.35;68.30;102212.19;5074572;28;20028;-65
2022/05/04 08:11:05;;;;;;;0.47;0.17;;;;;;;24.22;68.28;102213.63;5073732;28;20378;-65
2022/05/04 08:13:32;;;;;;;0.20;0.15;;;;;;;24.17;67.72;102216.00;5074345;28;20074;-66
2022/05/04 08:15:57;;;;;;;0.85;0.30;;;;;;;24.16;67.80;102213.44;5073525;28;20031;-64
2022/05/04 08:18:25;;;;;;;0.05;0.00;;;;;;;24.22;67.11;102221.88;5078085;28;20103;-64
2022/05/04 08:20:50;;;;;;;0.80;0.20;;;;;;;24.21;67.48;102222.91;5074656;28;20078;-66
2022/05/04 08:23:16;;;;;;;0.75;0.25;;;;;;;24.19;66.19;102218.63;5069543;28;20032;-65
2022/05/04 08:25:41;;;;;;;0.10;0.10;;;;;;;24.18;67.32;102216.88;5079831;28;20391;-65
2022/05/04 08:28:07;;;;;;;0.15;0.08;;;;;;;24.11;67.86;102216.75;5074636;28;20024;-65
2022/05/04 08:30:32;;;;;;;0.30;0.10;;;;;;;24.09;68.01;102213.31;5073367;28;20304;-64
2022/05/04 08:32:58;;;;;;;0.10;0.00;;;;;;;24.08;68.23;102214.34;5072289;28;20051;-65
2022/05/04 08:35:23;;;;;;;0.10;0.10;;;;;;;24.08;68.62;102211.59;5072077;28;20421;-64
2022/05/04 08:37:48;;;;;;;0.22;0.13;;;;;;;24.10;68.86;102215.03;5071907;28;20120;-64
2022/05/04 08:40:14;;;;;;;0.85;0.10;;;;;;;24.11;68.73;102218.63;5074042;28;20025;-64
2022/05/04 08:42:44;;;;;;;0.17;0.00;;;;;;;24.09;68.73;102212.47;5068651;28;20024;-64
2022/05/04 08:45:14;;;;;;;1.48;0.20;;;;;;;24.10;69.11;102217.78;5071769;28;20028;-65
2022/05/04 08:47:41;;;;;;;0.47;0.15;;;;;;;24.11;68.88;102211.25;5071494;28;20025;-65
2022/05/04 08:50:12;;;;;;;0.85;0.20;;;;;;;24.13;68.67;102211.06;5072293;28;20471;-64
2022/05/04 08:52:51;;;;;;;0.43;0.10;;;;;;;24.14;69.50;102210.88;5069458;28;20122;-66
2022/05/04 08:55:17;;;;;;;0.13;0.10;;;;;;;24.16;69.11;102205.22;5055089;28;20048;-65
2022/05/04 08:57:42;;;;;;;0.20;0.10;;;;;;;24.16;68.88;102202.47;5069097;28;20103;-65
2022/05/04 09:00:10;;;;;;;0.50;0.25;;;;;;;24.18;69.30;102200.38;5073787;28;20139;-65
2022/05/04 09:02:36;;;;;;;0.38;0.22;;;;;;;24.19;69.01;102203.00;5073645;28;20066;-65
2022/05/04 09:05:17;;;;;;;0.77;0.30;;;;;;;24.18;69.29;102201.25;5069967;28;20399;-65
2022/05/04 09:07:43;;;;;;;0.28;0.20;;;;;;;24.22;69.52;102204.53;5074343;28;20029;-63
2022/05/04 09:10:15;;;;;;;0.28;0.28;;;;;;;24.21;69.09;102198.16;5078621;28;20044;-64
2022/05/04 09:12:43;;;;;;;3.00;0.20;;;;;;;24.26;68.72;102192.97;5075125;28;20045;-64
2022/05/04 09:15:23;;;;;;;1.48;0.43;;;;;;;24.29;69.42;102194.53;5057450;28;20043;-64
2022/05/04 09:17:56;;;;;;;2.47;0.40;;;;;;;24.07;65.10;102176.06;5061764;28;20119;-63
2022/05/04 09:23:19;;;;;;;0.57;0.15;;;;;;;24.00;61.86;102167.66;5070562;28;20038;-64
2022/05/04 09:25:44;;;;;;;0.45;0.20;;;;;;;24.04;63.26;102171.78;5072496;28;20024;-64
2022/05/04 09:28:14;;;;;;;2.45;0.68;;;;;;;23.98;61.05;102172.47;5073552;28;20031;-63
2022/05/04 09:30:51;;;;;;;0.73;0.20;;;;;;;23.96;61.95;102163.56;5072885;28;20063;-64
2022/05/04 09:33:30;;;;;;;0.38;0.20;;;;;;;23.96;61.41;102158.06;5073691;28;20035;-64
2022/05/04 09:35:56;;;;;;;0.85;0.22;;;;;;;23.92;60.52;102162.22;5073262;28;20376;-64
2022/05/04 09:46:45;;;;;;;0.40;0.13;;;;;;;23.91;61.01;102150.38;5073368;28;20601;-63
2022/05/04 09:49:19;;;;;;;0.65;0.22;;;;;;;24.00;63.03;102142.94;5073253;28;20036;-63
2022/05/04 09:51:49;;;;;;;0.40;0.22;;;;;;;24.02;64.39;102157.38;5075815;28;20031;-63
2022/05/04 09:54:21;;;;;;;1.45;0.40;;;;;;;24.05;65.39;102146.03;5072585;28;20024;-63
2022/05/04 09:56:57;;;;;;;0.47;0.30;;;;;;;24.06;66.08;102141.38;5073431;28;20313;-64
2022/05/04 09:59:29;;;;;;;0.30;0.30;;;;;;;24.08;66.24;102140.16;5076877;28;20037;-63
2022/05/04 10:01:55;;;;;;;0.55;0.30;;;;;;;24.08;66.72;102140.16;5084037;28;20032;-63
2022/05/04 10:04:23;;;;;;;2.28;0.45;;;;;;;24.11;67.08;102142.56;5073037;28;20455;-64
2022/05/04 10:06:49;;;;;;;1.27;0.65;;;;;;;24.15;67.11;102134.81;5073148;28;20461;-64
2022/05/04 10:09:15;;;;;;;1.08;0.30;;;;;;;24.15;67.51;102130.16;5072734;28;20024;-64
2022/05/04 10:11:40;;;;;;;0.35;0.25;;;;;;;24.17;68.38;102132.72;5072896;28;20055;-64
2022/05/04 10:14:09;;;;;;;0.65;0.20;;;;;;;24.18;68.16;102128.94;5073049;28;20055;-64
2022/05/04 10:16:51;;;;;;;0.20;0.10;;;;;;;24.18;67.80;102116.06;5076281;28;20066;-64
2022/05/04 10:19:30;;;;;;;0.77;0.30;;;;;;;24.19;68.27;102123.28;5051223;28;20036;-64
2022/05/04 10:21:58;;;;;;;0.45;0.40;;;;;;;24.22;68.91;102130.31;5061234;28;20024;-64
2022/05/04 10:24:27;;;;;;;1.45;0.47;;;;;;;24.22;68.34;102124.81;5072443;28;20494;-64
2022/05/04 10:27:01;;;;;;;0.28;0.20;;;;;;;24.22;68.55;102120.19;5069281;28;20024;-64
2022/05/04 10:32:28;;;;;;;0.52;0.30;;;;;;;24.23;68.21;102116.41;5075998;28;20043;-64
2022/05/04 10:35:13;;;;;;;0.30;0.10;;;;;;;24.24;68.38;102117.25;5072518;28;20151;-64
2022/05/04 10:38:00;;;;;;;0.30;0.10;;;;;;;24.24;68.53;102118.09;5080479;28;20066;-63
2022/05/04 10:40:56;;;;;;;0.45;0.10;;;;;;;24.28;68.61;102113.09;5071301;28;20033;-64
2022/05/04 10:43:50;;;;;;;0.95;0.32;;;;;;;24.25;68.67;102117.06;5046772;28;20041;-64
2022/05/04 10:46:20;;;;;;;1.25;0.50;;;;;;;24.27;68.82;102112.25;5052311;28;20458;-64
2022/05/04 10:48:50;;;;;;;0.80;0.30;;;;;;;24.29;68.77;102112.09;5054179;28;20056;-64
2022/05/04 10:51:18;;;;;;;0.57;0.20;;;;;;;24.27;69.22;102103.16;5052127;28;20041;-63
2022/05/04 10:53:46;;;;;;;0.38;0.20;;;;;;;24.28;68.48;102097.47;5052371;28;20082;-64
2022/05/04 10:56:13;;;;;;;0.20;0.10;;;;;;;24.30;68.73;102080.81;5070636;28;20108;-64
2022/05/04 10:58:44;;;;;;;0.28;0.25;;;;;;;24.28;68.09;102097.47;5072425;28;20029;-64
2022/05/04 11:01:18;;;;;;;0.40;0.20;;;;;;;24.28;68.42;102097.47;5063157;28;20044;-64
2022/05/04 11:04:08;;;;;;;0.20;0.20;;;;;;;24.30;68.87;102089.94;5055088;28;20025;-63
2022/05/04 11:06:48;;;;;;;0.95;0.25;;;;;;;24.30;68.90;102087.19;5056464;28;20024;-64
2022/05/04 11:09:16;;;;;;;0.20;0.20;;;;;;;24.32;68.76;102087.00;5071714;28;20033;-64
2022/05/04 11:11:43;;;;;;;0.28;0.20;;;;;;;24.30;68.40;102084.44;5071039;28;20028;-64
2022/05/04 11:14:10;;;;;;;0.70;0.30;;;;;;;24.30;68.67;102078.94;5070566;28;20020;-63
2022/05/04 11:16:37;;;;;;;0.55;0.25;;;;;;;24.33;69.02;102076.84;5066770;28;20031;-64
2022/05/04 11:19:04;;;;;;;0.32;0.32;;;;;;;24.33;67.88;102082.34;5070729;28;20459;-64
2022/05/04 11:21:31;;;;;;;0.20;0.20;;;;;;;24.33;69.15;102071.38;5076796;28;20379;-64
2022/05/04 11:23:59;;;;;;;1.42;0.30;;;;;;;24.33;68.39;102074.97;5072039;28;20115;-64
2022/05/04 11:26:27;;;;;;;1.45;0.28;;;;;;;24.34;68.55;102073.06;5071940;28;20475;-64
2022/05/04 11:28:53;;;;;;;0.68;0.20;;;;;;;24.33;68.11;102060.38;5071909;28;20104;-64
2022/05/04 11:31:20;;;;;;;0.93;0.40;;;;;;;24.33;68.91;102069.47;5071848;28;20024;-64
2022/05/04 11:33:47;;;;;;;1.45;0.50;;;;;;;24.33;68.21;102063.97;5072042;28;20036;-64
2022/05/04 11:36:18;;;;;;;1.05;0.40;;;;;;;24.34;68.39;102062.06;5073513;28;20107;-64
2022/05/04 11:38:45;;;;;;;1.55;0.35;;;;;;;24.37;68.42;102059.00;5072166;28;20016;-64
2022/05/04 11:41:11;;;;;;;2.47;0.70;;;;;;;24.36;68.58;102060.03;5071858;28;20029;-64
2022/05/04 11:43:37;;;;;;;0.50;0.30;;;;;;;24.36;68.91;102058.13;5072043;28;20375;-64
2022/05/04 11:46:07;;;;;;;0.65;0.35;;;;;;;24.37;68.02;102056.25;5075429;28;20371;-64
2022/05/04 11:48:44;;;;;;;0.43;0.20;;;;;;;24.36;68.93;102055.38;5061185;28;20024;-64
2022/05/04 11:51:11;;;;;;;0.85;0.22;;;;;;;24.38;68.89;102041.47;5076947;28;20498;-64
2022/05/04 11:53:37;;;;;;;1.35;0.30;;;;;;;24.36;68.13;102046.28;5075255;28;20107;-65
2022/05/04 11:56:03;;;;;;;0.40;0.30;;;;;;;24.36;68.33;102043.53;5075268;28;20469;-64
2022/05/04 11:58:31;;;;;;;0.40;0.20;;;;;;;24.38;68.85;102046.97;5075310;28;20021;-64
2022/05/04 12:00:56;;;;;;;0.20;0.20;;;;;;;24.37;68.01;102039.75;5096816;28;20047;-64